createdAt,value
2017-08-31T00:02:26.060Z,18.37
2017-08-31T00:04:54.177Z,10.57
2017-08-31T00:07:22.025Z,15.60
2017-08-31T00:09:49.979Z,17.57
2017-08-31T00:12:17.830Z,9.37
2017-08-31T00:14:45.735Z,11.07
2017-08-31T00:17:13.641Z,9.43
2017-08-31T00:19:41.465Z,15.40
2017-08-31T00:22:09.394Z,10.97
2017-08-31T00:24:37.290Z,10.83
2017-08-31T00:27:05.178Z,13.67
2017-08-31T00:29:33.444Z,13.80
2017-08-31T00:32:01.387Z,13.47
2017-08-31T00:34:29.313Z,10.40
2017-08-31T00:36:57.172Z,9.40
2017-08-31T00:39:25.042Z,15.30
2017-08-31T00:41:53.282Z,8.30
2017-08-31T00:44:21.187Z,9.87
2017-08-31T00:46:50.527Z,9.93
2017-08-31T00:49:19.624Z,9.20
2017-08-31T00:51:48.821Z,11.70
2017-08-31T00:54:18.071Z,12.03
2017-08-31T00:56:47.210Z,10.30
2017-08-31T00:59:16.273Z,13.83
2017-08-31T01:01:45.421Z,11.13
2017-08-31T01:04:14.572Z,11.27
2017-08-31T01:06:43.537Z,10.70
2017-08-31T01:09:12.638Z,9.27
2017-08-31T01:11:41.752Z,11.00
2017-08-31T01:14:10.807Z,8.03
2017-08-31T01:16:39.840Z,11.23
2017-08-31T01:19:08.876Z,15.73
2017-08-31T01:21:37.719Z,10.27
2017-08-31T01:24:06.978Z,7.53
2017-08-31T01:26:37.205Z,10.73
2017-08-31T01:29:06.264Z,13.57
2017-08-31T01:31:35.330Z,14.13
2017-08-31T01:34:03.131Z,7.80
2017-08-31T01:36:32.233Z,7.17
2017-08-31T01:39:01.565Z,11.03
2017-08-31T01:41:30.688Z,7.73
2017-08-31T01:43:59.797Z,9.77
2017-08-31T01:46:28.886Z,10.33
2017-08-31T01:48:58.093Z,7.20
2017-08-31T01:51:27.210Z,9.63
2017-08-31T01:53:56.336Z,6.97
2017-08-31T01:56:25.376Z,6.33
2017-08-31T01:58:54.641Z,13.40
2017-08-31T02:01:23.723Z,10.90
2017-08-31T02:03:52.829Z,6.60
2017-08-31T02:06:22.203Z,7.73
2017-08-31T02:08:51.305Z,11.37
2017-08-31T02:11:20.555Z,5.80
2017-08-31T02:13:49.741Z,6.87
2017-08-31T02:16:18.469Z,8.87
2017-08-31T02:18:47.687Z,6.80
2017-08-31T02:21:16.882Z,8.20
2017-08-31T02:23:45.924Z,8.80
2017-08-31T02:26:15.163Z,6.57
2017-08-31T02:28:44.273Z,6.53
2017-08-31T02:31:13.360Z,6.53
2017-08-31T02:33:42.575Z,9.07
2017-08-31T02:36:11.308Z,11.30
2017-08-31T02:38:40.217Z,6.10
2017-08-31T02:41:09.459Z,9.10
2017-08-31T02:43:38.678Z,10.13
2017-08-31T02:46:07.716Z,6.13
2017-08-31T02:48:37.105Z,5.70
2017-08-31T02:51:06.137Z,6.10
2017-08-31T02:53:35.195Z,4.27
2017-08-31T02:56:04.328Z,7.80
2017-08-31T02:58:33.419Z,5.37
2017-08-31T03:01:02.865Z,8.93
2017-08-31T03:03:32.085Z,4.93
2017-08-31T03:06:01.208Z,8.90
2017-08-31T03:08:30.417Z,3.57
2017-08-31T03:10:59.477Z,3.87
2017-08-31T03:13:28.699Z,8.17
2017-08-31T03:15:57.769Z,16.53
2017-08-31T03:18:26.857Z,6.20
2017-08-31T03:20:55.977Z,9.03
2017-08-31T03:23:25.099Z,7.50
2017-08-31T03:25:54.186Z,3.97
2017-08-31T03:28:23.225Z,6.97
2017-08-31T03:30:52.431Z,4.07
2017-08-31T03:33:21.517Z,6.17
2017-08-31T03:35:50.621Z,7.57
2017-08-31T03:38:19.749Z,4.60
2017-08-31T03:40:49.365Z,9.40
2017-08-31T03:43:18.583Z,5.60
2017-08-31T03:45:47.674Z,6.27
2017-08-31T03:48:16.749Z,6.73
2017-08-31T03:50:45.831Z,5.50
2017-08-31T03:53:15.026Z,6.93
2017-08-31T03:55:44.176Z,7.50
2017-08-31T03:58:13.451Z,7.10
2017-08-31T04:00:42.323Z,11.17
2017-08-31T04:03:11.361Z,7.60
2017-08-31T04:05:40.426Z,5.10
2017-08-31T04:08:09.504Z,6.13
2017-08-31T04:10:38.772Z,8.47
2017-08-31T04:13:07.850Z,6.22
2017-08-31T04:15:37.051Z,10.80
2017-08-31T04:18:06.178Z,14.50
2017-08-31T04:20:35.228Z,4.23
2017-08-31T04:23:04.259Z,9.73
2017-08-31T04:25:33.563Z,9.40
2017-08-31T04:28:02.663Z,5.60
2017-08-31T04:30:31.766Z,6.50
2017-08-31T04:33:00.567Z,3.93
2017-08-31T04:35:28.379Z,4.73
2017-08-31T04:37:56.233Z,7.07
2017-08-31T04:40:24.047Z,4.57
2017-08-31T04:42:51.850Z,8.83
2017-08-31T04:45:19.647Z,11.50
2017-08-31T04:47:47.449Z,8.20
2017-08-31T04:50:15.322Z,7.47
2017-08-31T04:52:43.124Z,5.70
2017-08-31T04:55:10.932Z,13.30
2017-08-31T04:57:38.758Z,5.40
2017-08-31T05:00:06.590Z,5.17
2017-08-31T05:02:34.497Z,3.77
2017-08-31T05:05:02.500Z,5.93
2017-08-31T05:07:30.370Z,3.93
2017-08-31T05:09:58.194Z,5.80
2017-08-31T05:12:26.084Z,5.57
2017-08-31T05:14:53.954Z,11.53
2017-08-31T05:17:21.814Z,4.87
2017-08-31T05:19:49.673Z,4.90
2017-08-31T05:22:17.597Z,10.00
2017-08-31T05:24:45.461Z,9.33
2017-08-31T05:27:13.399Z,6.43
2017-08-31T05:29:41.292Z,10.30
2017-08-31T05:32:09.195Z,11.57
2017-08-31T05:34:37.043Z,9.83
2017-08-31T05:37:04.926Z,5.63
2017-08-31T05:39:32.766Z,6.20
2017-08-31T05:42:00.610Z,3.93
2017-08-31T05:44:28.474Z,6.23
2017-08-31T05:46:56.405Z,4.47
2017-08-31T05:49:24.410Z,4.97
2017-08-31T05:51:52.286Z,8.60
2017-08-31T05:54:20.194Z,9.97
2017-08-31T05:56:48.110Z,7.60
2017-08-31T05:59:15.954Z,3.70
2017-08-31T06:01:43.808Z,7.43
2017-08-31T06:04:11.722Z,7.57
2017-08-31T06:06:39.592Z,7.03
2017-08-31T06:09:07.435Z,8.17
2017-08-31T06:11:35.397Z,7.87
2017-08-31T06:14:03.276Z,13.03
2017-08-31T06:16:31.187Z,9.67
2017-08-31T06:18:59.079Z,12.33
2017-08-31T06:21:26.911Z,8.93
2017-08-31T06:23:54.715Z,11.40
2017-08-31T06:26:22.490Z,6.63
2017-08-31T06:28:50.327Z,15.73
2017-08-31T06:31:18.208Z,5.40
2017-08-31T06:33:46.079Z,13.03
2017-08-31T06:36:13.895Z,16.93
2017-08-31T06:38:41.734Z,7.73
2017-08-31T06:41:09.821Z,10.03
2017-08-31T06:43:37.673Z,7.00
2017-08-31T06:46:05.539Z,4.80
2017-08-31T06:48:33.464Z,11.43
2017-08-31T06:51:01.300Z,8.30
2017-08-31T06:53:29.087Z,6.73
2017-08-31T06:55:56.883Z,12.57
2017-08-31T06:58:24.749Z,7.67
2017-08-31T07:00:52.664Z,11.70
2017-08-31T07:03:20.523Z,9.73
2017-08-31T07:05:48.401Z,6.10
2017-08-31T07:08:16.248Z,8.30
2017-08-31T07:10:44.058Z,7.70
2017-08-31T07:13:11.921Z,13.27
2017-08-31T07:15:39.713Z,18.13
2017-08-31T07:18:07.635Z,17.77
2017-08-31T07:20:35.514Z,10.37
2017-08-31T07:23:03.313Z,6.90
2017-08-31T07:25:31.176Z,12.77
2017-08-31T07:27:59.034Z,16.03
2017-08-31T07:30:26.887Z,18.60
2017-08-31T07:32:54.681Z,14.70
2017-08-31T07:35:22.470Z,13.07
2017-08-31T07:37:50.266Z,12.23
2017-08-31T07:40:18.801Z,15.20
2017-08-31T07:42:46.622Z,12.03
2017-08-31T07:45:14.420Z,19.57
2017-08-31T07:47:42.212Z,20.27
2017-08-31T07:50:10.043Z,12.93
2017-08-31T07:52:37.934Z,14.57
2017-08-31T07:55:05.825Z,8.83
2017-08-31T07:57:33.618Z,13.97
2017-08-31T08:00:01.419Z,15.53
2017-08-31T08:02:29.313Z,8.27
2017-08-31T08:04:57.101Z,15.53
2017-08-31T08:07:24.963Z,14.03
2017-08-31T08:09:52.738Z,14.30
2017-08-31T08:12:20.517Z,12.73
2017-08-31T08:14:48.423Z,9.17
2017-08-31T08:17:16.286Z,10.33
2017-08-31T08:19:44.121Z,9.50
2017-08-31T08:22:12.005Z,8.93
2017-08-31T08:24:39.846Z,12.37
2017-08-31T08:27:07.733Z,17.13
2017-08-31T08:29:35.750Z,9.97
2017-08-31T08:32:03.897Z,13.88
2017-08-31T08:34:32.618Z,10.30
2017-08-31T08:37:00.527Z,10.50
2017-08-31T08:39:28.349Z,17.07
2017-08-31T08:41:56.331Z,13.57
2017-08-31T08:44:24.146Z,7.83
2017-08-31T08:46:51.964Z,18.80
2017-08-31T08:49:19.871Z,10.30
2017-08-31T08:51:47.749Z,19.83
2017-08-31T08:54:15.832Z,20.13
2017-08-31T08:56:43.850Z,16.20
2017-08-31T08:59:11.635Z,14.53
2017-08-31T09:01:39.488Z,23.03
2017-08-31T09:04:07.395Z,61.83
2017-08-31T09:06:35.230Z,15.60
2017-08-31T09:09:03.352Z,10.13
2017-08-31T09:11:32.098Z,23.87
2017-08-31T09:14:02.545Z,28.67
2017-08-31T09:16:31.256Z,17.43
2017-08-31T09:18:59.042Z,13.57
2017-08-31T09:21:26.857Z,12.10
2017-08-31T09:23:54.724Z,27.90
2017-08-31T09:26:22.534Z,11.30
2017-08-31T09:28:50.388Z,12.93
2017-08-31T09:31:18.239Z,12.40
2017-08-31T09:33:47.944Z,12.03
2017-08-31T09:36:15.788Z,15.30
2017-08-31T09:38:43.622Z,15.03
2017-08-31T09:41:11.516Z,9.20
2017-08-31T09:43:40.360Z,7.97
2017-08-31T09:46:08.438Z,11.73
2017-08-31T09:48:36.322Z,12.83
2017-08-31T09:51:04.219Z,6.80
2017-08-31T09:53:32.882Z,8.90
2017-08-31T09:56:01.388Z,8.37
2017-08-31T09:58:29.234Z,11.80
2017-08-31T10:00:57.137Z,9.13
2017-08-31T10:03:25.147Z,7.93
2017-08-31T10:05:53.046Z,13.70
2017-08-31T10:08:20.894Z,10.83
2017-08-31T10:10:48.722Z,8.07
2017-08-31T10:13:17.357Z,7.10
2017-08-31T10:15:45.352Z,8.63
2017-08-31T10:18:13.168Z,8.20
2017-08-31T10:20:40.959Z,12.77
2017-08-31T10:23:08.847Z,44.30
2017-08-31T10:25:36.673Z,37.67
2017-08-31T10:28:04.514Z,24.23
2017-08-31T10:30:32.445Z,39.80
2017-08-31T10:33:00.304Z,107.53
2017-08-31T10:35:28.309Z,79.73
2017-08-31T10:37:56.214Z,36.93
2017-08-31T10:40:24.151Z,26.30
2017-08-31T10:42:52.102Z,21.07
2017-08-31T10:45:20.006Z,21.00
2017-08-31T10:47:47.893Z,14.50
2017-08-31T10:50:15.785Z,13.73
2017-08-31T10:52:43.662Z,20.53
2017-08-31T10:55:11.574Z,15.43
2017-08-31T10:57:39.425Z,13.67
2017-08-31T11:00:07.404Z,15.50
2017-08-31T11:02:35.310Z,15.97
2017-08-31T11:05:03.172Z,32.03
2017-08-31T11:07:31.049Z,12.93
2017-08-31T11:09:59.038Z,12.87
2017-08-31T11:12:27.396Z,15.57
2017-08-31T11:14:55.348Z,14.17
2017-08-31T11:17:25.154Z,9.17
2017-08-31T11:19:53.072Z,14.20
2017-08-31T11:22:21.739Z,11.43
2017-08-31T11:24:49.581Z,8.07
2017-08-31T11:27:18.532Z,10.90
2017-08-31T11:29:46.546Z,11.97
2017-08-31T11:32:14.592Z,8.37
2017-08-31T11:34:42.393Z,9.00
2017-08-31T11:37:20.631Z,12.80
2017-08-31T11:39:49.476Z,8.47
2017-08-31T11:42:24.255Z,10.27
2017-08-31T11:44:52.098Z,5.43
2017-08-31T11:47:19.970Z,5.07
2017-08-31T11:49:47.827Z,5.27
2017-08-31T11:52:16.309Z,4.30
2017-08-31T11:54:44.201Z,8.53
2017-08-31T11:57:12.060Z,10.33
2017-08-31T11:59:39.912Z,6.77
2017-08-31T12:02:07.712Z,5.30
2017-08-31T12:04:35.517Z,5.93
2017-08-31T12:07:03.381Z,6.73
2017-08-31T12:09:31.185Z,8.67
2017-08-31T12:11:59.747Z,9.00
2017-08-31T12:14:28.992Z,11.60
2017-08-31T12:16:56.841Z,4.77
2017-08-31T12:19:24.747Z,7.20
2017-08-31T12:21:52.602Z,9.20
2017-08-31T12:24:20.406Z,8.13
2017-08-31T12:26:48.233Z,6.60
2017-08-31T12:29:16.358Z,4.40
2017-08-31T12:31:44.158Z,9.50
2017-08-31T12:34:11.982Z,6.50
2017-08-31T12:36:39.843Z,10.63
2017-08-31T12:39:07.714Z,7.33
2017-08-31T12:41:36.157Z,5.20
2017-08-31T12:44:04.024Z,6.20
2017-08-31T12:46:32.237Z,4.87
2017-08-31T12:49:00.056Z,7.93
2017-08-31T12:51:28.065Z,6.27
2017-08-31T12:53:55.876Z,10.17
2017-08-31T12:56:24.540Z,6.03
2017-08-31T12:58:52.389Z,8.67
2017-08-31T13:01:20.194Z,5.47
2017-08-31T13:03:48.154Z,7.50
2017-08-31T13:06:16.187Z,9.33
2017-08-31T13:08:44.004Z,7.17
2017-08-31T13:11:11.903Z,11.17
2017-08-31T13:13:39.711Z,7.73
2017-08-31T13:16:07.706Z,6.60
2017-08-31T13:18:35.496Z,6.03
2017-08-31T13:21:03.488Z,5.07
2017-08-31T13:23:31.351Z,6.10
2017-08-31T13:25:59.156Z,14.80
2017-08-31T13:28:27.064Z,11.27
2017-08-31T13:30:55.180Z,8.17
2017-08-31T13:33:22.991Z,8.63
2017-08-31T13:35:50.823Z,7.13
2017-08-31T13:38:18.974Z,11.20
2017-08-31T13:40:46.826Z,9.70
2017-08-31T13:43:14.881Z,5.43
2017-08-31T13:45:42.693Z,8.83
2017-08-31T13:48:10.470Z,6.83
2017-08-31T13:50:38.267Z,8.63
2017-08-31T13:53:06.264Z,7.80
2017-08-31T13:55:34.083Z,9.17
2017-08-31T13:58:01.886Z,9.97
2017-08-31T14:00:29.682Z,14.97
2017-08-31T14:02:57.719Z,11.93
2017-08-31T14:05:25.617Z,9.13
2017-08-31T14:07:53.457Z,10.57
2017-08-31T14:10:21.298Z,8.13
2017-08-31T14:12:49.116Z,8.07
2017-08-31T14:15:17.116Z,5.53
2017-08-31T14:17:44.937Z,10.40
2017-08-31T14:20:12.769Z,5.63
2017-08-31T14:22:40.604Z,6.67
2017-08-31T14:25:08.453Z,8.13
2017-08-31T14:27:36.713Z,13.30
2017-08-31T14:30:04.629Z,8.00
2017-08-31T14:32:32.739Z,7.63
2017-08-31T14:35:00.761Z,7.13
2017-08-31T14:37:28.560Z,15.43
2017-08-31T14:39:56.460Z,13.10
2017-08-31T14:42:24.243Z,4.53
2017-08-31T14:44:52.058Z,9.80
2017-08-31T14:47:19.837Z,7.90
2017-08-31T14:49:47.589Z,8.23
2017-08-31T14:52:15.371Z,8.82
2017-08-31T14:54:43.198Z,11.23
2017-08-31T14:57:11.590Z,8.73
2017-08-31T14:59:39.507Z,7.90
2017-08-31T15:02:07.455Z,9.73
2017-08-31T15:04:35.273Z,8.13
2017-08-31T15:07:03.139Z,8.53
2017-08-31T15:09:30.957Z,10.90
2017-08-31T15:11:58.787Z,6.07
2017-08-31T15:14:26.582Z,11.40
2017-08-31T15:16:54.423Z,7.43
2017-08-31T15:19:22.268Z,10.90
2017-08-31T15:21:50.155Z,11.57
2017-08-31T15:24:17.933Z,10.40
2017-08-31T15:26:45.763Z,6.53
2017-08-31T15:29:13.922Z,10.10
2017-08-31T15:31:41.735Z,10.30
2017-08-31T15:34:09.641Z,6.07
2017-08-31T15:36:37.860Z,12.20
2017-08-31T15:39:05.701Z,9.93
2017-08-31T15:41:33.494Z,6.97
2017-08-31T15:44:01.312Z,9.67
2017-08-31T15:46:29.147Z,8.27
2017-08-31T15:48:56.990Z,5.70
2017-08-31T15:51:24.779Z,6.93
2017-08-31T15:53:52.576Z,8.63
2017-08-31T15:56:20.364Z,10.37
2017-08-31T15:58:48.231Z,10.90
2017-08-31T16:01:16.111Z,10.93
2017-08-31T16:03:43.981Z,8.33
2017-08-31T16:06:11.866Z,11.47
2017-08-31T16:08:39.669Z,12.07
2017-08-31T16:11:07.446Z,6.17
2017-08-31T16:13:35.250Z,11.57
2017-08-31T16:16:03.052Z,5.97
2017-08-31T16:18:30.841Z,39.07
2017-08-31T16:20:58.721Z,12.90
2017-08-31T16:23:26.598Z,4.70
2017-08-31T16:25:54.464Z,5.57
2017-08-31T16:28:22.305Z,8.27
2017-08-31T16:30:50.474Z,5.90
2017-08-31T16:33:18.317Z,8.17
2017-08-31T16:35:46.166Z,10.33
2017-08-31T16:38:14.014Z,13.60
2017-08-31T16:40:41.780Z,8.70
2017-08-31T16:43:09.637Z,10.33
2017-08-31T16:45:37.559Z,6.70
2017-08-31T16:48:05.420Z,10.47
2017-08-31T16:50:33.255Z,12.80
2017-08-31T16:53:01.083Z,5.67
2017-08-31T16:55:28.970Z,12.10
2017-08-31T16:57:56.879Z,8.23
2017-08-31T17:00:25.479Z,7.83
2017-08-31T17:02:53.306Z,8.33
2017-08-31T17:05:21.079Z,11.03
2017-08-31T17:07:48.923Z,10.13
2017-08-31T17:10:16.716Z,8.80
2017-08-31T17:12:44.529Z,11.60
2017-08-31T17:15:12.354Z,9.80
2017-08-31T17:17:40.997Z,12.40
2017-08-31T17:20:10.658Z,16.30
2017-08-31T17:22:38.487Z,14.40
2017-08-31T17:25:06.571Z,8.87
2017-08-31T17:27:36.886Z,8.87
2017-08-31T17:30:04.681Z,6.50
2017-08-31T17:32:32.572Z,9.40
2017-08-31T17:35:00.443Z,12.77
2017-08-31T17:37:30.151Z,11.73
2017-08-31T17:39:58.044Z,8.80
2017-08-31T17:42:25.906Z,10.53
2017-08-31T17:44:53.855Z,9.93
2017-08-31T17:47:23.278Z,8.53
2017-08-31T17:49:51.141Z,6.20
2017-08-31T17:52:19.021Z,11.37
2017-08-31T17:54:48.339Z,9.57
2017-08-31T17:57:16.738Z,7.90
2017-08-31T17:59:44.600Z,7.63
2017-08-31T18:02:12.417Z,6.07
2017-08-31T18:04:40.385Z,7.60
2017-08-31T18:07:08.229Z,7.57
2017-08-31T18:09:36.314Z,7.43
2017-08-31T18:12:04.958Z,12.70
2017-08-31T18:14:33.542Z,12.83
2017-08-31T18:17:01.832Z,10.50
2017-08-31T18:19:30.113Z,13.00
2017-08-31T18:21:58.140Z,13.07
2017-08-31T18:24:26.121Z,6.07
2017-08-31T18:26:54.038Z,10.43
2017-08-31T18:29:22.466Z,10.23
2017-08-31T18:31:50.944Z,14.33
2017-08-31T18:34:19.737Z,13.00
2017-08-31T18:36:47.924Z,7.50
2017-08-31T18:39:16.135Z,11.10
2017-08-31T18:41:44.046Z,10.40
2017-08-31T18:44:11.813Z,13.83
2017-08-31T18:46:39.702Z,6.10
2017-08-31T18:49:07.599Z,13.67
2017-08-31T18:51:35.450Z,9.17
2017-08-31T18:54:04.078Z,7.30
2017-08-31T18:56:32.006Z,13.80
2017-08-31T18:58:59.985Z,13.05
2017-08-31T19:01:27.826Z,12.63
2017-08-31T19:03:55.854Z,6.73
2017-08-31T19:06:23.720Z,8.47
2017-08-31T19:08:51.668Z,8.63
2017-08-31T19:11:19.579Z,7.63
2017-08-31T19:13:47.394Z,7.13
2017-08-31T19:16:15.241Z,8.70
2017-08-31T19:18:43.183Z,5.43
2017-08-31T19:21:11.152Z,8.30
2017-08-31T19:23:39.303Z,13.10
2017-08-31T19:26:08.427Z,13.40
2017-08-31T19:28:36.237Z,12.50
2017-08-31T19:31:04.083Z,12.23
2017-08-31T19:33:31.983Z,6.93
2017-08-31T19:35:59.805Z,11.23
2017-08-31T19:38:27.657Z,7.77
2017-08-31T19:40:55.547Z,14.00
2017-08-31T19:43:23.506Z,7.13
2017-08-31T19:45:51.419Z,9.70
2017-08-31T19:48:19.274Z,10.33
2017-08-31T19:50:47.159Z,4.20
2017-08-31T19:53:15.116Z,6.40
2017-08-31T19:55:42.913Z,9.37
2017-08-31T19:58:10.867Z,6.60
2017-08-31T20:00:38.994Z,6.43
2017-08-31T20:03:06.899Z,6.70
2017-08-31T20:05:34.684Z,5.90
2017-08-31T20:08:02.570Z,8.80
2017-08-31T20:10:31.225Z,7.20
2017-08-31T20:12:59.045Z,6.43
2017-08-31T20:15:26.920Z,6.60
2017-08-31T20:17:54.760Z,9.70
2017-08-31T20:20:22.580Z,5.83
2017-08-31T20:22:50.555Z,7.20
2017-08-31T20:25:18.412Z,8.20
2017-08-31T20:27:46.231Z,6.83
2017-08-31T20:30:14.114Z,9.30
2017-08-31T20:32:41.969Z,7.70
2017-08-31T20:35:09.839Z,8.70
2017-08-31T20:37:37.687Z,6.77
2017-08-31T20:40:05.565Z,9.27
2017-08-31T20:42:33.536Z,11.50
2017-08-31T20:45:01.438Z,4.80
2017-08-31T20:47:29.330Z,9.07
2017-08-31T20:49:58.179Z,9.27
2017-08-31T20:52:26.058Z,9.53
2017-08-31T20:54:53.875Z,10.67
2017-08-31T20:57:21.730Z,6.40
2017-08-31T20:59:49.582Z,5.50
2017-08-31T21:02:18.479Z,7.63
2017-08-31T21:04:46.297Z,7.03
2017-08-31T21:07:14.178Z,13.50
2017-08-31T21:09:42.068Z,7.40
2017-08-31T21:12:10.382Z,14.40
2017-08-31T21:14:38.242Z,8.10
2017-08-31T21:17:06.069Z,13.90
2017-08-31T21:19:33.965Z,8.80
2017-08-31T21:22:01.828Z,15.20
2017-08-31T21:24:29.661Z,8.03
2017-08-31T21:26:57.469Z,7.70
2017-08-31T21:29:25.345Z,5.87
2017-08-31T21:31:53.185Z,14.60
2017-08-31T21:34:20.987Z,9.73
2017-08-31T21:36:49.398Z,9.60
2017-08-31T21:39:17.210Z,8.60
2017-08-31T21:41:45.078Z,10.93
2017-08-31T21:44:12.934Z,7.33
2017-08-31T21:46:40.737Z,7.27
2017-08-31T21:49:08.564Z,12.97
2017-08-31T21:51:36.358Z,5.80
2017-08-31T21:54:04.195Z,9.83
2017-08-31T21:56:32.061Z,9.33
2017-08-31T21:59:00.092Z,5.83
2017-08-31T22:01:27.883Z,11.40
2017-08-31T22:03:55.666Z,6.00
2017-08-31T22:06:23.564Z,9.87
2017-08-31T22:08:52.235Z,6.00
2017-08-31T22:11:20.025Z,8.07
2017-08-31T22:13:47.848Z,9.73
2017-08-31T22:16:17.399Z,12.83
2017-08-31T22:18:45.189Z,4.83
2017-08-31T22:21:13.031Z,7.97
2017-08-31T22:23:40.818Z,12.90
2017-08-31T22:26:08.589Z,8.83
2017-08-31T22:28:36.525Z,9.20
2017-08-31T22:31:04.314Z,6.40
2017-08-31T22:33:32.127Z,8.37
2017-08-31T22:35:59.954Z,7.03
2017-08-31T22:38:27.867Z,6.63
2017-08-31T22:40:56.303Z,13.80
2017-08-31T22:43:24.164Z,18.50
2017-08-31T22:45:51.998Z,11.73
2017-08-31T22:48:19.825Z,9.57
2017-08-31T22:50:47.688Z,10.03
2017-08-31T22:53:15.485Z,7.60
2017-08-31T22:55:43.245Z,7.10
2017-08-31T22:58:18.246Z,11.60
2017-08-31T23:00:46.093Z,11.53
2017-08-31T23:03:13.897Z,7.37
2017-08-31T23:05:41.688Z,12.43
2017-08-31T23:08:11.588Z,8.00
2017-08-31T23:10:40.343Z,8.10
2017-08-31T23:13:08.141Z,7.50
2017-08-31T23:15:35.939Z,12.40
2017-08-31T23:18:03.805Z,11.40
2017-08-31T23:20:31.999Z,7.03
2017-08-31T23:23:01.763Z,7.67
2017-08-31T23:25:30.404Z,7.07
2017-08-31T23:27:59.916Z,7.33
2017-08-31T23:30:28.094Z,10.60
2017-08-31T23:32:56.157Z,10.37
2017-08-31T23:35:24.061Z,10.47
2017-08-31T23:37:51.978Z,8.30
2017-08-31T23:40:20.134Z,8.43
2017-08-31T23:42:48.605Z,7.70
2017-08-31T23:45:16.910Z,6.47
2017-08-31T23:47:47.267Z,7.17
2017-08-31T23:50:16.144Z,9.23
2017-08-31T23:52:44.022Z,7.03
2017-08-31T23:55:13.386Z,11.13
2017-08-31T23:57:41.271Z,9.93
